createdAt,value
2018-09-01T00:02:18.397Z,34.10
2018-09-01T00:04:46.859Z,31.30
2018-09-01T00:07:15.347Z,34.80
2018-09-01T00:09:43.898Z,32.33
2018-09-01T00:12:12.417Z,30.87
2018-09-01T00:14:40.908Z,33.17
2018-09-01T00:17:13.913Z,35.30
2018-09-01T00:19:42.445Z,32.57
2018-09-01T00:22:10.990Z,31.90
2018-09-01T00:24:39.438Z,31.10
2018-09-01T00:27:07.892Z,30.80
2018-09-01T00:29:36.422Z,33.10
2018-09-01T00:32:04.918Z,33.47
2018-09-01T00:34:33.425Z,32.07
2018-09-01T00:37:02.025Z,29.50
2018-09-01T00:39:30.562Z,32.33
2018-09-01T00:41:59.090Z,32.40
2018-09-01T00:44:27.548Z,34.17
2018-09-01T00:46:56.614Z,32.47
2018-09-01T00:49:25.046Z,34.07
2018-09-01T00:51:53.610Z,34.03
2018-09-01T00:54:22.133Z,36.00
2018-09-01T00:56:51.175Z,33.67
2018-09-01T00:59:19.945Z,35.93
2018-09-01T01:01:48.485Z,36.10
2018-09-01T01:04:17.015Z,37.67
2018-09-01T01:06:45.574Z,37.40
2018-09-01T01:09:14.046Z,35.07
2018-09-01T01:11:42.529Z,35.63
2018-09-01T01:14:11.002Z,39.63
2018-09-01T01:16:39.541Z,34.23
2018-09-01T01:19:08.090Z,37.47
2018-09-01T01:21:36.550Z,39.07
2018-09-01T01:24:05.015Z,38.63
2018-09-01T01:26:33.505Z,36.30
2018-09-01T01:29:02.065Z,37.57
2018-09-01T01:31:30.563Z,36.10
2018-09-01T01:33:59.050Z,37.97
2018-09-01T01:36:27.494Z,39.13
2018-09-01T01:38:56.076Z,39.50
2018-09-01T01:41:24.598Z,37.87
2018-09-01T01:43:53.089Z,40.80
2018-09-01T01:46:21.668Z,39.23
2018-09-01T01:48:50.090Z,37.80
2018-09-01T01:51:18.594Z,35.90
2018-09-01T01:53:47.325Z,36.50
2018-09-01T01:56:15.793Z,34.70
2018-09-01T01:58:44.326Z,37.33
2018-09-01T02:01:12.769Z,37.00
2018-09-01T02:03:41.304Z,36.00
2018-09-01T02:06:09.825Z,32.87
2018-09-01T02:08:38.287Z,35.30
2018-09-01T02:11:06.749Z,36.00
2018-09-01T02:13:35.241Z,34.40
2018-09-01T02:16:03.703Z,35.77
2018-09-01T02:18:32.172Z,33.10
2018-09-01T02:21:00.725Z,33.67
2018-09-01T02:23:29.165Z,34.57
2018-09-01T02:25:57.834Z,34.83
2018-09-01T02:28:26.466Z,33.90
2018-09-01T02:30:54.961Z,33.17
2018-09-01T02:33:23.461Z,34.10
2018-09-01T02:35:52.953Z,34.67
2018-09-01T02:38:21.520Z,32.73
2018-09-01T02:40:49.977Z,33.37
2018-09-01T02:43:18.429Z,33.33
2018-09-01T02:45:47.127Z,33.17
2018-09-01T02:48:15.632Z,36.67
2018-09-01T02:50:44.141Z,32.10
2018-09-01T02:53:12.597Z,32.23
2018-09-01T02:55:41.106Z,34.80
2018-09-01T02:58:09.620Z,34.30
2018-09-01T03:00:38.580Z,35.93
2018-09-01T03:03:07.145Z,34.23
2018-09-01T03:05:35.872Z,34.73
2018-09-01T03:08:04.777Z,35.30
2018-09-01T03:10:33.257Z,33.97
2018-09-01T03:13:01.802Z,34.17
2018-09-01T03:15:30.383Z,33.33
2018-09-01T03:17:58.821Z,38.47
2018-09-01T03:20:27.406Z,38.03
2018-09-01T03:22:56.866Z,36.83
2018-09-01T03:25:25.321Z,37.30
2018-09-01T03:27:53.806Z,35.40
2018-09-01T03:30:22.265Z,38.17
2018-09-01T03:32:50.981Z,36.67
2018-09-01T03:35:19.475Z,36.90
2018-09-01T03:37:47.994Z,33.93
2018-09-01T03:40:16.457Z,34.70
2018-09-01T03:42:44.918Z,36.80
2018-09-01T03:45:13.417Z,36.40
2018-09-01T03:47:41.893Z,31.70
2018-09-01T03:50:10.357Z,32.23
2018-09-01T03:52:38.850Z,31.33
2018-09-01T03:55:07.378Z,30.47
2018-09-01T03:57:36.558Z,33.37
2018-09-01T04:00:05.258Z,33.07
2018-09-01T04:02:33.737Z,31.13
2018-09-01T04:05:02.214Z,29.43
2018-09-01T04:07:30.654Z,34.70
2018-09-01T04:09:59.180Z,34.67
2018-09-01T04:12:27.657Z,30.53
2018-09-01T04:14:56.121Z,29.50
2018-09-01T04:17:24.622Z,31.90
2018-09-01T04:19:53.101Z,32.90
2018-09-01T04:22:21.599Z,33.40
2018-09-01T04:24:50.075Z,33.13
2018-09-01T04:27:18.549Z,31.17
2018-09-01T04:29:47.064Z,32.17
2018-09-01T04:32:15.592Z,30.73
2018-09-01T04:34:44.095Z,32.37
2018-09-01T04:37:12.577Z,33.63
2018-09-01T04:39:41.041Z,33.53
2018-09-01T04:42:09.542Z,31.83
2018-09-01T04:44:37.983Z,30.90
2018-09-01T04:47:06.939Z,33.13
2018-09-01T04:49:35.337Z,32.07
2018-09-01T04:52:03.813Z,29.47
2018-09-01T04:54:32.269Z,29.00
2018-09-01T04:57:00.702Z,29.10
2018-09-01T04:59:29.224Z,30.47
2018-09-01T05:01:57.689Z,27.87
2018-09-01T05:04:26.117Z,28.37
2018-09-01T05:06:54.645Z,26.53
2018-09-01T05:09:23.230Z,27.97
2018-09-01T05:11:51.730Z,25.70
2018-09-01T05:14:20.190Z,27.30
2018-09-01T05:16:49.319Z,26.93
2018-09-01T05:19:17.801Z,26.03
2018-09-01T05:21:46.274Z,29.07
2018-09-01T05:24:14.734Z,29.57
2018-09-01T05:26:43.705Z,27.30
2018-09-01T05:29:12.211Z,28.43
2018-09-01T05:31:40.680Z,25.80
2018-09-01T05:34:09.173Z,28.80
2018-09-01T05:36:37.691Z,26.57
2018-09-01T05:39:07.893Z,25.60
2018-09-01T05:41:36.546Z,25.03
2018-09-01T05:44:05.069Z,24.90
2018-09-01T05:46:33.829Z,28.60
2018-09-01T05:49:02.354Z,24.23
2018-09-01T05:51:31.004Z,25.63
2018-09-01T05:53:59.467Z,25.77
2018-09-01T05:56:27.991Z,25.30
2018-09-01T05:58:56.478Z,25.50
2018-09-01T06:01:25.016Z,24.67
2018-09-01T06:03:53.517Z,25.60
2018-09-01T06:06:22.041Z,25.83
2018-09-01T06:08:50.570Z,25.00
2018-09-01T06:11:19.056Z,24.93
2018-09-01T06:13:47.560Z,24.53
2018-09-01T06:16:16.118Z,25.13
2018-09-01T06:18:44.626Z,25.07
2018-09-01T06:21:13.053Z,24.37
2018-09-01T06:23:41.525Z,25.43
2018-09-01T06:26:10.041Z,25.67
2018-09-01T06:28:42.525Z,24.27
2018-09-01T06:31:11.050Z,24.23
2018-09-01T06:33:39.626Z,23.80
2018-09-01T06:36:08.094Z,26.43
2018-09-01T06:38:36.695Z,25.27
2018-09-01T06:41:05.673Z,26.30
2018-09-01T06:43:34.269Z,25.60
2018-09-01T06:46:02.773Z,24.30
2018-09-01T06:48:31.252Z,25.07
2018-09-01T06:50:59.763Z,23.37
2018-09-01T06:53:28.197Z,24.17
2018-09-01T06:55:56.737Z,23.50
2018-09-01T06:58:25.196Z,23.40
2018-09-01T07:00:53.656Z,22.53
2018-09-01T07:03:22.117Z,24.43
2018-09-01T07:05:50.601Z,23.60
2018-09-01T07:08:19.085Z,23.97
2018-09-01T07:10:47.561Z,21.70
2018-09-01T07:13:16.138Z,20.20
2018-09-01T07:15:44.657Z,21.77
2018-09-01T07:18:13.133Z,21.43
2018-09-01T07:20:41.633Z,22.93
2018-09-01T07:23:10.145Z,23.13
2018-09-01T07:25:38.775Z,23.50
2018-09-01T07:28:07.517Z,22.00
2018-09-01T07:30:36.180Z,23.00
2018-09-01T07:33:04.597Z,22.23
2018-09-01T07:35:33.218Z,23.03
2018-09-01T07:38:01.654Z,21.93
2018-09-01T07:40:30.149Z,21.67
2018-09-01T07:42:58.569Z,21.53
2018-09-01T07:45:27.176Z,21.57
2018-09-01T07:47:55.637Z,22.73
2018-09-01T07:50:24.164Z,21.10
2018-09-01T07:52:52.642Z,22.33
2018-09-01T07:55:21.178Z,22.40
2018-09-01T07:57:49.746Z,21.23
2018-09-01T08:00:18.278Z,23.17
2018-09-01T08:02:46.757Z,23.53
2018-09-01T08:05:15.228Z,22.53
2018-09-01T08:07:43.777Z,23.77
2018-09-01T08:10:12.234Z,24.57
2018-09-01T08:12:40.743Z,23.03
2018-09-01T08:15:09.629Z,23.37
2018-09-01T08:17:38.229Z,24.90
2018-09-01T08:20:06.762Z,22.63
2018-09-01T08:22:35.661Z,23.30
2018-09-01T08:25:04.241Z,26.60
2018-09-01T08:27:32.845Z,25.37
2018-09-01T08:30:01.541Z,23.80
2018-09-01T08:32:30.129Z,26.00
2018-09-01T08:34:58.685Z,24.07
2018-09-01T08:37:27.183Z,23.57
2018-09-01T08:39:55.673Z,24.40
2018-09-01T08:42:24.294Z,22.70
2018-09-01T08:44:52.738Z,23.27
2018-09-01T08:47:21.242Z,25.83
2018-09-01T08:49:49.729Z,24.10
2018-09-01T08:52:18.205Z,22.67
2018-09-01T08:54:46.665Z,25.70
2018-09-01T08:57:15.127Z,26.87
2018-09-01T08:59:43.578Z,24.50
2018-09-01T09:02:12.102Z,26.57
2018-09-01T09:04:40.557Z,31.83
2018-09-01T09:07:09.009Z,22.07
2018-09-01T09:09:37.556Z,22.77
2018-09-01T09:12:06.054Z,28.33
2018-09-01T09:14:34.529Z,25.80
2018-09-01T09:17:03.065Z,26.97
2018-09-01T09:19:31.590Z,26.50
2018-09-01T09:22:00.109Z,24.30
2018-09-01T09:24:28.698Z,24.20
2018-09-01T09:26:57.154Z,24.87
2018-09-01T09:29:25.646Z,24.77
2018-09-01T09:31:54.161Z,25.60
2018-09-01T09:34:22.825Z,23.33
2018-09-01T09:36:51.278Z,25.13
2018-09-01T09:39:19.738Z,21.23
2018-09-01T09:41:48.272Z,23.20
2018-09-01T09:44:16.770Z,22.20
2018-09-01T09:46:46.842Z,23.47
2018-09-01T09:49:15.441Z,21.93
2018-09-01T09:51:43.944Z,21.83
2018-09-01T09:54:12.410Z,22.33
2018-09-01T09:56:40.943Z,21.67
2018-09-01T09:59:09.555Z,20.03
2018-09-01T10:01:39.193Z,21.30
2018-09-01T10:04:08.421Z,21.23
2018-09-01T10:06:37.484Z,21.43
2018-09-01T10:09:08.462Z,18.93
2018-09-01T10:11:36.967Z,19.17
2018-09-01T10:14:05.493Z,20.07
2018-09-01T10:16:33.960Z,21.03
2018-09-01T10:19:02.421Z,19.53
2018-09-01T10:21:30.917Z,19.97
2018-09-01T10:23:59.421Z,20.93
2018-09-01T10:26:27.878Z,19.97
2018-09-01T10:28:56.334Z,19.43
2018-09-01T10:31:24.902Z,19.13
2018-09-01T10:33:53.443Z,21.03
2018-09-01T10:36:22.028Z,18.90
2018-09-01T10:38:50.509Z,19.03
2018-09-01T10:41:19.086Z,17.73
2018-09-01T10:43:47.620Z,17.00
2018-09-01T10:46:16.129Z,17.53
2018-09-01T10:48:44.727Z,18.37
2018-09-01T10:51:13.180Z,18.50
2018-09-01T10:53:41.637Z,17.23
2018-09-01T10:56:10.206Z,18.23
2018-09-01T10:58:38.673Z,19.47
2018-09-01T11:01:07.221Z,17.87
2018-09-01T11:03:35.685Z,18.87
2018-09-01T11:06:04.247Z,17.50
2018-09-01T11:08:32.705Z,16.37
2018-09-01T11:11:01.303Z,18.77
2018-09-01T11:13:29.789Z,16.77
2018-09-01T11:15:58.266Z,18.63
2018-09-01T11:18:26.758Z,17.17
2018-09-01T11:20:55.313Z,16.47
2018-09-01T11:23:24.337Z,18.10
2018-09-01T11:25:52.818Z,16.90
2018-09-01T11:28:21.289Z,18.37
2018-09-01T11:30:49.793Z,17.80
2018-09-01T11:33:18.248Z,15.73
2018-09-01T11:35:46.769Z,17.23
2018-09-01T11:38:15.274Z,17.47
2018-09-01T11:40:43.791Z,17.03
2018-09-01T11:43:12.391Z,18.27
2018-09-01T11:45:40.801Z,18.80
2018-09-01T11:48:09.298Z,16.93
2018-09-01T11:50:37.850Z,16.57
2018-09-01T11:53:06.393Z,18.33
2018-09-01T11:55:34.945Z,15.50
2018-09-01T11:58:03.417Z,18.23
2018-09-01T12:00:32.009Z,16.60
2018-09-01T12:03:00.448Z,17.60
2018-09-01T12:05:28.901Z,17.57
2018-09-01T12:07:57.513Z,18.80
2018-09-01T12:10:25.967Z,18.30
2018-09-01T12:12:54.400Z,18.13
2018-09-01T12:15:22.883Z,16.77
2018-09-01T12:17:51.350Z,17.07
2018-09-01T12:20:19.862Z,15.87
2018-09-01T12:22:48.384Z,16.63
2018-09-01T12:25:16.864Z,16.83
2018-09-01T12:27:45.371Z,17.33
2018-09-01T12:30:13.885Z,16.90
2018-09-01T12:32:42.342Z,17.57
2018-09-01T12:35:10.826Z,16.17
2018-09-01T12:37:39.350Z,15.73
2018-09-01T12:40:07.889Z,16.53
2018-09-01T12:42:36.438Z,15.50
2018-09-01T12:45:05.332Z,15.17
2018-09-01T12:47:33.845Z,15.83
2018-09-01T12:50:02.497Z,15.87
2018-09-01T12:52:31.052Z,16.83
2018-09-01T12:54:59.498Z,14.73
2018-09-01T12:57:28.062Z,14.50
2018-09-01T12:59:56.562Z,16.57
2018-09-01T13:02:25.837Z,14.23
2018-09-01T13:04:54.497Z,15.00
2018-09-01T13:07:22.953Z,14.57
2018-09-01T13:09:51.453Z,15.30
2018-09-01T13:12:20.001Z,14.67
2018-09-01T13:14:48.489Z,14.40
2018-09-01T13:17:16.947Z,14.37
2018-09-01T13:19:45.405Z,15.33
2018-09-01T13:22:14.169Z,15.80
2018-09-01T13:24:42.710Z,16.73
2018-09-01T13:27:11.193Z,14.77
2018-09-01T13:29:39.657Z,15.50
2018-09-01T13:32:08.168Z,15.93
2018-09-01T13:34:36.724Z,15.10
2018-09-01T13:37:05.274Z,15.73
2018-09-01T13:39:33.780Z,15.07
2018-09-01T13:42:02.233Z,15.23
2018-09-01T13:44:30.867Z,15.37
2018-09-01T13:46:59.357Z,17.27
2018-09-01T13:49:27.920Z,15.70
2018-09-01T13:51:56.429Z,15.57
2018-09-01T13:54:24.893Z,14.70
2018-09-01T13:56:53.337Z,17.47
2018-09-01T13:59:21.802Z,14.93
2018-09-01T14:01:50.287Z,16.23
2018-09-01T14:04:19.889Z,15.53
2018-09-01T14:06:48.490Z,18.90
2018-09-01T14:09:16.941Z,15.73
2018-09-01T14:11:45.402Z,15.77
2018-09-01T14:14:13.985Z,15.80
2018-09-01T14:16:42.426Z,15.53
2018-09-01T14:19:10.985Z,14.80
2018-09-01T14:21:39.445Z,17.97
2018-09-01T14:24:07.875Z,14.60
2018-09-01T14:26:36.376Z,15.37
2018-09-01T14:29:04.953Z,22.30
2018-09-01T14:31:33.426Z,16.07
2018-09-01T14:34:01.862Z,18.13
2018-09-01T14:36:30.431Z,15.37
2018-09-01T14:38:58.890Z,15.97
2018-09-01T14:41:27.419Z,15.93
2018-09-01T14:43:55.870Z,17.27
2018-09-01T14:46:24.343Z,18.90
2018-09-01T14:48:52.813Z,15.47
2018-09-01T14:51:21.285Z,15.73
2018-09-01T14:53:49.778Z,16.87
2018-09-01T14:56:18.342Z,16.03
2018-09-01T14:58:46.784Z,16.43
2018-09-01T15:01:15.301Z,17.20
2018-09-01T15:03:43.814Z,15.90
2018-09-01T15:06:12.298Z,16.57
2018-09-01T15:08:40.776Z,15.70
2018-09-01T15:11:09.253Z,16.70
2018-09-01T15:13:37.701Z,16.13
2018-09-01T15:16:06.155Z,16.60
2018-09-01T15:18:34.649Z,16.73
2018-09-01T15:21:03.122Z,18.00
2018-09-01T15:23:31.623Z,18.30
2018-09-01T15:26:00.113Z,17.20
2018-09-01T15:28:28.605Z,19.93
2018-09-01T15:30:57.101Z,19.60
2018-09-01T15:33:25.554Z,21.80
2018-09-01T15:35:54.154Z,22.17
2018-09-01T15:38:22.710Z,18.43
2018-09-01T15:40:51.194Z,17.63
2018-09-01T15:43:19.641Z,18.07
2018-09-01T15:45:48.225Z,20.70
2018-09-01T15:48:16.781Z,22.20
2018-09-01T15:50:45.429Z,18.73
2018-09-01T15:53:13.999Z,18.43
2018-09-01T15:55:42.489Z,18.43
2018-09-01T15:58:10.945Z,18.50
2018-09-01T16:00:39.438Z,21.23
2018-09-01T16:03:07.977Z,23.73
2018-09-01T16:05:36.458Z,18.10
2018-09-01T16:08:05.261Z,20.10
2018-09-01T16:10:33.730Z,31.40
2018-09-01T16:13:02.248Z,74.60
2018-09-01T16:15:30.722Z,92.37
2018-09-01T16:17:59.177Z,74.20
2018-09-01T16:20:27.787Z,61.63
2018-09-01T16:22:56.327Z,57.67
2018-09-01T16:25:24.838Z,45.93
2018-09-01T16:27:53.385Z,46.17
2018-09-01T16:30:21.857Z,40.37
2018-09-01T16:32:50.457Z,44.90
2018-09-01T16:35:18.952Z,45.50
2018-09-01T16:37:47.506Z,34.47
2018-09-01T16:40:15.974Z,30.67
2018-09-01T16:42:44.471Z,31.83
2018-09-01T16:45:12.982Z,26.97
2018-09-01T16:47:41.429Z,25.87
2018-09-01T16:50:09.922Z,24.23
2018-09-01T16:52:38.372Z,24.23
2018-09-01T16:55:06.965Z,24.03
2018-09-01T16:57:35.442Z,29.70
2018-09-01T17:00:04.145Z,28.70
2018-09-01T17:02:32.613Z,33.23
2018-09-01T17:05:01.209Z,39.10
2018-09-01T17:07:29.684Z,33.63
2018-09-01T17:09:58.217Z,40.27
2018-09-01T17:12:26.732Z,35.00
2018-09-01T17:14:55.190Z,32.10
2018-09-01T17:17:23.697Z,33.20
2018-09-01T17:19:52.141Z,32.90
2018-09-01T17:22:20.590Z,33.57
2018-09-01T17:24:49.072Z,33.00
2018-09-01T17:27:17.513Z,24.57
2018-09-01T17:29:45.989Z,24.77
2018-09-01T17:32:14.478Z,22.60
2018-09-01T17:34:42.961Z,23.80
2018-09-01T17:37:11.493Z,26.97
2018-09-01T17:39:39.958Z,26.87
2018-09-01T17:42:08.419Z,25.10
2018-09-01T17:44:37.109Z,23.93
2018-09-01T17:47:05.577Z,26.40
2018-09-01T17:49:34.197Z,26.53
2018-09-01T17:52:02.644Z,27.00
2018-09-01T17:54:31.170Z,30.83
2018-09-01T17:56:59.793Z,33.20
2018-09-01T17:59:28.349Z,36.50
2018-09-01T18:01:57.246Z,27.97
2018-09-01T18:04:25.889Z,23.60
2018-09-01T18:06:54.358Z,23.43
2018-09-01T18:09:22.866Z,23.57
2018-09-01T18:11:51.317Z,23.63
2018-09-01T18:14:19.781Z,25.80
2018-09-01T18:16:48.690Z,27.00
2018-09-01T18:19:17.140Z,27.03
2018-09-01T18:21:45.673Z,25.47
2018-09-01T18:24:14.167Z,27.37
2018-09-01T18:26:42.625Z,26.57
2018-09-01T18:29:11.271Z,28.40
2018-09-01T18:31:39.781Z,28.73
2018-09-01T18:34:08.302Z,26.23
2018-09-01T18:36:36.862Z,26.20
2018-09-01T18:39:07.278Z,28.53
2018-09-01T18:41:35.752Z,28.97
2018-09-01T18:44:04.236Z,29.33
2018-09-01T18:46:32.713Z,28.20
2018-09-01T18:49:01.170Z,25.83
2018-09-01T18:51:29.645Z,25.90
2018-09-01T18:53:58.312Z,28.83
2018-09-01T18:56:26.887Z,25.33
2018-09-01T18:58:55.427Z,26.97
2018-09-01T19:01:23.916Z,27.90
2018-09-01T19:03:52.361Z,27.20
2018-09-01T19:06:20.837Z,26.53
2018-09-01T19:08:49.388Z,25.27
2018-09-01T19:11:18.132Z,27.23
2018-09-01T19:13:46.693Z,24.40
2018-09-01T19:16:15.082Z,26.07
2018-09-01T19:18:43.554Z,31.33
2018-09-01T19:21:12.089Z,25.50
2018-09-01T19:23:40.546Z,25.47
2018-09-01T19:26:08.982Z,24.20
2018-09-01T19:28:37.561Z,25.13
2018-09-01T19:31:06.981Z,24.50
2018-09-01T19:33:35.430Z,23.50
2018-09-01T19:36:04.194Z,25.27
2018-09-01T19:38:32.664Z,25.47
2018-09-01T19:41:01.169Z,25.43
2018-09-01T19:43:29.658Z,24.13
2018-09-01T19:45:58.130Z,25.47
2018-09-01T19:48:26.817Z,26.87
2018-09-01T19:50:55.305Z,24.47
2018-09-01T19:53:24.048Z,27.40
2018-09-01T19:55:52.549Z,24.27
2018-09-01T19:58:21.016Z,24.40
2018-09-01T20:00:49.489Z,23.07
2018-09-01T20:03:17.997Z,24.17
2018-09-01T20:05:48.017Z,24.77
2018-09-01T20:08:16.477Z,25.57
2018-09-01T20:10:44.927Z,24.27
2018-09-01T20:13:13.425Z,24.67
2018-09-01T20:15:42.117Z,24.27
2018-09-01T20:18:10.793Z,25.23
2018-09-01T20:20:39.852Z,26.30
2018-09-01T20:23:08.513Z,26.43
2018-09-01T20:25:37.113Z,26.53
2018-09-01T20:28:06.117Z,27.50
2018-09-01T20:30:34.826Z,26.70
2018-09-01T20:33:03.322Z,24.87
2018-09-01T20:35:37.137Z,24.77
2018-09-01T20:38:05.978Z,23.93
2018-09-01T20:40:34.312Z,24.90
2018-09-01T20:43:02.986Z,25.60
2018-09-01T20:45:31.608Z,25.40
2018-09-01T20:48:00.140Z,24.77
2018-09-01T20:50:28.601Z,25.27
2018-09-01T20:52:57.133Z,28.10
2018-09-01T20:55:25.657Z,26.00
2018-09-01T20:57:54.177Z,25.67
2018-09-01T21:00:22.685Z,24.13
2018-09-01T21:02:51.205Z,28.00
2018-09-01T21:05:19.652Z,28.33
2018-09-01T21:07:48.401Z,25.37
2018-09-01T21:10:17.001Z,25.00
2018-09-01T21:12:45.951Z,24.63
2018-09-01T21:15:14.389Z,27.53
2018-09-01T21:17:42.874Z,28.83
2018-09-01T21:20:11.357Z,25.07
2018-09-01T21:22:39.954Z,27.43
2018-09-01T21:25:08.462Z,31.07
2018-09-01T21:27:37.097Z,29.27
2018-09-01T21:30:06.184Z,28.03
2018-09-01T21:32:34.689Z,26.83
2018-09-01T21:35:03.176Z,28.13
2018-09-01T21:37:31.629Z,28.90
2018-09-01T21:40:00.226Z,27.37
2018-09-01T21:42:28.697Z,30.07
2018-09-01T21:44:57.214Z,28.73
2018-09-01T21:47:25.749Z,26.37
2018-09-01T21:49:54.202Z,31.33
2018-09-01T21:52:22.849Z,26.70
2018-09-01T21:54:51.652Z,26.17
2018-09-01T21:57:20.245Z,28.80
2018-09-01T21:59:48.801Z,28.30
2018-09-01T22:02:24.228Z,30.73
2018-09-01T22:04:57.814Z,32.30
2018-09-01T22:07:26.425Z,28.60
2018-09-01T22:09:55.460Z,30.60
2018-09-01T22:12:25.234Z,29.40
2018-09-01T22:14:54.407Z,28.63
2018-09-01T22:17:23.219Z,31.07
2018-09-01T22:19:51.794Z,31.77
2018-09-01T22:22:20.417Z,32.60
2018-09-01T22:24:48.940Z,33.17
2018-09-01T22:27:17.437Z,31.10
2018-09-01T22:29:45.893Z,34.17
2018-09-01T22:32:14.433Z,30.47
2018-09-01T22:34:42.980Z,33.43
2018-09-01T22:37:11.426Z,32.73
2018-09-01T22:39:39.942Z,32.03
2018-09-01T22:42:08.550Z,33.73
2018-09-01T22:44:37.045Z,33.67
2018-09-01T22:47:08.243Z,34.33
2018-09-01T22:49:36.709Z,33.57
2018-09-01T22:52:05.280Z,32.17
2018-09-01T22:54:33.737Z,36.33
2018-09-01T22:57:02.438Z,32.17
2018-09-01T22:59:30.889Z,31.47
2018-09-01T23:01:59.569Z,35.17
2018-09-01T23:04:28.231Z,34.60
2018-09-01T23:06:56.722Z,34.97
2018-09-01T23:09:25.230Z,37.67
2018-09-01T23:11:53.667Z,35.33
2018-09-01T23:14:22.297Z,34.57
2018-09-01T23:16:50.753Z,31.63
2018-09-01T23:19:19.245Z,33.80
2018-09-01T23:21:47.913Z,35.87
2018-09-01T23:24:16.434Z,35.70
2018-09-01T23:26:44.925Z,32.97
2018-09-01T23:29:13.376Z,33.30
2018-09-01T23:31:41.982Z,33.17
2018-09-01T23:34:10.514Z,34.83
2018-09-01T23:36:38.987Z,33.63
2018-09-01T23:39:08.769Z,33.70
2018-09-01T23:41:37.257Z,36.13
2018-09-01T23:44:05.793Z,33.90
2018-09-01T23:46:34.327Z,34.33
2018-09-01T23:49:02.986Z,33.50
2018-09-01T23:51:31.641Z,35.60
2018-09-01T23:54:00.181Z,35.90
2018-09-01T23:56:28.676Z,34.67
2018-09-01T23:58:57.210Z,35.30
